CDT,Max TemperatureF,Mean TemperatureF,Min TemperatureF,Max Dew PointF,MeanDew PointF,Min DewpointF,Max Humidity, Mean Humidity, Min Humidity, Max Sea Level PressureIn, Mean Sea Level PressureIn, Min Sea Level PressureIn, Max VisibilityMiles, Mean VisibilityMiles, Min VisibilityMiles, Max Wind SpeedMPH, Mean Wind SpeedMPH, Max Gust SpeedMPH,PrecipitationIn, CloudCover, Events, WindDirDegrees
2011-9-1,84,74,64,72,66,63,94,79,58,29.97,29.85,29.70,10,10,6,20,6,31,0.01,2,,155
2011-9-2,75,66,57,72,64,57,100,84,60,29.94,29.82,29.66,10,9,2,20,8,28,0.00,4,,285
2011-9-3,75,64,53,64,59,52,100,87,61,29.92,29.84,29.75,10,8,0,12,2,18,0.22,4,Thunderstorm,227
2011-9-4,57,54,48,54,50,46,100,87,72,30.13,29.97,29.83,10,10,4,15,9,20,0.18,6,,321
2011-9-5,57,50,42,48,44,37,100,78,51,30.23,30.19,30.15,10,9,2,8,3,,0.06,4,,348
2011-9-6,68,52,35,52,43,34,100,75,40,30.23,30.20,30.17,10,9,0,8,1,,0.00,1,,316
2011-9-7,71,55,39,57,48,37,100,77,46,30.29,30.26,30.23,10,8,0,10,2,,0.00,0,,299
2011-9-8,78,62,46,63,53,45,100,77,41,30.27,30.21,30.12,10,9,0,10,1,,0.00,0,,347
2011-9-9,78,62,46,64,56,46,100,73,50,30.11,30.05,30.02,10,10,1,9,2,,0.00,0,,336
2011-9-10,78,62,46,61,53,45,100,74,39,30.10,30.05,29.98,10,8,0,8,1,,0.01,2,,324
2011-9-11,82,70,59,61,58,55,94,62,39,29.94,29.89,29.86,10,10,4,17,8,23,0.00,0,,254
2011-9-12,82,66,51,59,55,50,100,72,42,29.88,29.80,29.65,10,9,2,23,5,34,0.00,0,,205
2011-9-13,64,57,50,48,43,39,94,60,40,29.94,29.89,29.85,10,10,5,18,13,26,0.11,5,,261
2011-9-14,48,42,37,39,33,28,93,69,46,30.22,30.11,29.95,10,10,10,25,13,38,0.09,6,,300
2011-9-15,48,42,35,39,33,27,100,72,43,30.40,30.34,30.25,10,10,10,14,7,20,0.03,4,,293
2011-9-16,60,43,26,36,30,25,100,60,31,30.34,30.29,30.22,10,10,10,13,3,18,0.00,0,,199
2011-9-17,60,46,33,45,39,30,100,66,42,30.31,30.26,30.19,10,10,10,15,5,22,0.00,3,,164
2011-9-18,60,56,51,55,49,43,100,81,67,30.17,30.06,29.93,10,10,3,14,9,26,0.16,8,,164
2011-9-19,64,55,44,54,48,37,100,76,37,29.95,29.92,29.89,10,9,0,14,7,16,0.00,4,,279
2011-9-20,66,54,42,55,50,39,100,71,52,29.94,29.77,29.66,10,10,1,21,8,31,0.01,3,,166
2011-9-21,57,50,44,52,47,41,94,83,63,29.91,29.70,29.63,10,9,3,15,9,25,0.22,7,,231
2011-9-22,46,42,39,45,41,37,100,93,81,30.12,30.03,29.94,10,6,2,12,8,,0.12,8,,270
2011-9-23,50,47,44,46,45,43,100,92,82,30.15,30.12,30.08,10,8,2,8,4,,0.04,8,,326
2011-9-24,53,48,42,46,45,41,100,90,76,30.11,30.08,30.05,10,10,0,10,2,,0.00,8,,7
2011-9-25,62,52,42,54,47,41,100,86,55,30.11,30.05,29.99,10,10,2,12,4,,0.00,7,,83
2011-9-26,66,54,42,55,50,41,100,87,64,29.99,29.92,29.84,10,9,0,15,6,18,0.02,4,,44
2011-9-27,59,57,55,57,56,54,100,97,94,29.87,29.86,29.83,10,8,1,10,4,,0.34,8,,9
2011-9-28,66,60,55,59,56,54,100,87,68,29.85,29.81,29.74,10,8,2,9,3,,0.01,6,,191
2011-9-29,59,52,46,55,50,39,100,88,76,29.92,29.63,29.50,10,9,2,25,12,44,1.03,5,Thunderstorm,279
2011-9-30,46,39,30,41,37,28,100,82,66,30.28,30.14,29.97,10,9,0,16,6,25,0.03,5,,360